Subang/Sultan Abdul Aziz Shah Airport

Airport
ICAO code: 
WMSA
IATA Code: 
SZB
Summary
ICAO Region: 
APAC
Territory: 
Location: 
Subang, Selangor
Serving: 
Subang
Elevation: 
90 ft
Coordinates: 
Aerial View: 
3° 7' 50.282" N, 101° 33' 2.378" E
Metar
Observation
WMSA 271800Z VRB01KT 9999 FEW017CB 26/25 Q1009
Station
Subang/Sultan Abdul Aziz Shah Airport
Date/Time
2022-05-27 18:00:00
Wind speed
01 kts
Lowest cloud amount
few clouds
Temperature
26°C
Dew point
25°C
Humidity
94%
QNH
1009 hPa
Weather condition
n/a

Sultan Abdul Aziz Shah Airport (formerly Subang International Airport), often called Subang Airport and known as Skypark Subang, is an airport located in Subang, Malaysia, and primarily serves general aviation and some turboprop domestic flights. It serves Klang Valley, West Malaysia.

Climatology

Tropical Rainforest climate (Köppen climate classification Af) - almost no distinct seasons, average daily temperature around 27°C throughout the year. Extensive cloud cover and heavy rainfall prevent temperatures from rising much over 33°C. The diurnal temperature change is between 2°C and 5°C which is greater than the annual temperature range of 2°C. Rainfall is heavy and is usually convectional and in the afternoon.

Runways

Designator Length Width Surface Rops
15/33 3780 45 ASP Yes/Yes
Airport map: 
Aerial View: 

SKYbrary Partners:

Safety knowledge contributed by: